createdAt,value
2019-02-17T00:00:11.403Z,1016.62
2019-02-17T00:01:14.888Z,1016.59
2019-02-17T00:02:11.380Z,1016.60
2019-02-17T00:03:11.374Z,1016.63
2019-02-17T00:04:11.359Z,1016.63
2019-02-17T00:05:11.357Z,1016.61
2019-02-17T00:06:11.336Z,1016.59
2019-02-17T00:07:11.354Z,1016.55
2019-02-17T00:08:11.314Z,1016.55
2019-02-17T00:09:11.311Z,1016.56
2019-02-17T00:10:11.294Z,1016.58
2019-02-17T00:11:11.283Z,1016.60
2019-02-17T00:12:11.272Z,1016.59
2019-02-17T00:13:11.274Z,1016.61
2019-02-17T00:14:11.249Z,1016.58
2019-02-17T00:15:11.246Z,1016.60
2019-02-17T00:16:11.239Z,1016.59
2019-02-17T00:17:11.215Z,1016.58
2019-02-17T00:18:11.207Z,1016.56
2019-02-17T00:19:11.194Z,1016.54
2019-02-17T00:20:11.185Z,1016.54
2019-02-17T00:21:11.194Z,1016.55
2019-02-17T00:22:11.163Z,1016.60
2019-02-17T00:23:11.150Z,1016.56
2019-02-17T00:24:11.141Z,1016.57
2019-02-17T00:25:11.130Z,1016.61
2019-02-17T00:26:11.131Z,1016.62
2019-02-17T00:27:11.120Z,1016.60
2019-02-17T00:28:11.098Z,1016.58
2019-02-17T00:29:11.085Z,1016.55
2019-02-17T00:30:11.073Z,1016.56
2019-02-17T00:31:11.109Z,1016.60
2019-02-17T00:32:11.053Z,1016.59
2019-02-17T00:33:11.051Z,1016.61
2019-02-17T00:34:11.036Z,1016.65
2019-02-17T00:35:11.023Z,1016.68
2019-02-17T00:36:11.014Z,1016.66
2019-02-17T00:37:11.019Z,1016.65
2019-02-17T00:38:10.986Z,1016.68
2019-02-17T00:39:10.984Z,1016.60
2019-02-17T00:40:10.966Z,1016.60
2019-02-17T00:41:10.955Z,1016.58
2019-02-17T00:42:10.949Z,1016.63
2019-02-17T00:43:10.946Z,1016.61
2019-02-17T00:44:10.923Z,1016.60
2019-02-17T00:45:10.920Z,1016.62
2019-02-17T00:46:10.910Z,1016.56
2019-02-17T00:47:10.889Z,1016.54
2019-02-17T00:48:10.886Z,1016.60
2019-02-17T00:49:10.873Z,1016.63
2019-02-17T00:50:10.883Z,1016.59
2019-02-17T00:51:10.852Z,1016.62
2019-02-17T00:52:10.833Z,1016.64
2019-02-17T00:53:10.823Z,1016.59
2019-02-17T00:54:10.843Z,1016.64
2019-02-17T00:55:10.802Z,1016.64
2019-02-17T00:56:10.790Z,1016.62
2019-02-17T00:57:10.793Z,1016.73
2019-02-17T00:58:10.768Z,1016.76
2019-02-17T00:59:10.762Z,1016.73
2019-02-17T01:00:10.777Z,1016.73
2019-02-17T01:01:10.743Z,1016.68
2019-02-17T01:02:10.729Z,1016.68
2019-02-17T01:03:10.725Z,1016.69
2019-02-17T01:04:10.706Z,1016.74
2019-02-17T01:05:10.709Z,1016.72
2019-02-17T01:06:10.709Z,1016.71
2019-02-17T01:07:10.673Z,1016.71
2019-02-17T01:08:10.660Z,1016.73
2019-02-17T01:09:10.663Z,1016.70
2019-02-17T01:10:10.642Z,1016.68
2019-02-17T01:11:10.637Z,1016.68
2019-02-17T01:12:10.645Z,1016.69
2019-02-17T01:13:10.606Z,1016.67
2019-02-17T01:14:10.595Z,1016.65
2019-02-17T01:15:10.595Z,1016.69
2019-02-17T01:16:10.573Z,1016.68
2019-02-17T01:17:10.567Z,1016.69
2019-02-17T01:18:10.565Z,1016.70
2019-02-17T01:19:10.542Z,1016.68
2019-02-17T01:20:10.529Z,1016.68
2019-02-17T01:21:10.552Z,1016.70
2019-02-17T01:22:10.512Z,1016.72
2019-02-17T01:23:10.498Z,1016.71
2019-02-17T01:24:10.486Z,1016.67
2019-02-17T01:25:10.476Z,1016.72
2019-02-17T01:26:10.472Z,1016.69
2019-02-17T01:27:10.466Z,1016.69
2019-02-17T01:28:10.444Z,1016.68
2019-02-17T01:29:19.741Z,1016.70
2019-02-17T01:30:11.422Z,1016.67
2019-02-17T01:31:10.411Z,1016.67
2019-02-17T01:32:10.420Z,1016.72
2019-02-17T01:33:10.387Z,1016.73
2019-02-17T01:34:10.375Z,1016.72
2019-02-17T01:35:10.371Z,1016.72
2019-02-17T01:36:10.361Z,1016.70
2019-02-17T01:37:10.373Z,1016.71
2019-02-17T01:38:10.338Z,1016.70
2019-02-17T01:39:10.322Z,1016.69
2019-02-17T01:40:10.310Z,1016.69
2019-02-17T01:41:10.336Z,1016.64
2019-02-17T01:42:10.288Z,1016.69
2019-02-17T01:43:10.302Z,1016.66
2019-02-17T01:44:10.275Z,1016.68
2019-02-17T01:45:10.260Z,1016.63
2019-02-17T01:46:10.245Z,1016.62
2019-02-17T01:47:10.233Z,1016.62
2019-02-17T01:48:10.223Z,1016.62
2019-02-17T01:49:10.223Z,1016.62
2019-02-17T01:50:10.210Z,1016.59
2019-02-17T01:51:10.189Z,1016.61
2019-02-17T01:52:10.227Z,1016.59
2019-02-17T01:53:10.168Z,1016.56
2019-02-17T01:54:10.156Z,1016.54
2019-02-17T01:55:10.146Z,1016.55
2019-02-17T01:56:10.142Z,1016.53
2019-02-17T01:57:10.124Z,1016.53
2019-02-17T01:58:10.135Z,1016.58
2019-02-17T01:59:10.101Z,1016.54
2019-02-17T02:00:10.090Z,1016.55
2019-02-17T02:01:10.080Z,1016.56
2019-02-17T02:02:10.116Z,1016.55
2019-02-17T02:03:10.065Z,1016.54
2019-02-17T02:04:10.047Z,1016.52
2019-02-17T02:05:10.038Z,1016.49
2019-02-17T02:06:10.024Z,1016.51
2019-02-17T02:07:10.015Z,1016.46
2019-02-17T02:08:10.049Z,1016.46
2019-02-17T02:09:09.993Z,1016.45
2019-02-17T02:10:09.986Z,1016.41
2019-02-17T02:11:09.973Z,1016.40
2019-02-17T02:12:09.959Z,1016.39
2019-02-17T02:13:09.949Z,1016.38
2019-02-17T02:14:09.965Z,1016.40
2019-02-17T02:15:09.926Z,1016.39
2019-02-17T02:16:09.914Z,1016.39
2019-02-17T02:17:09.902Z,1016.37
2019-02-17T02:18:09.923Z,1016.32
2019-02-17T02:19:09.882Z,1016.36
2019-02-17T02:20:09.880Z,1016.35
2019-02-17T02:21:09.861Z,1016.34
2019-02-17T02:22:09.850Z,1016.35
2019-02-17T02:23:09.839Z,1016.31
2019-02-17T02:24:09.842Z,1016.30
2019-02-17T02:25:09.831Z,1016.28
2019-02-17T02:26:09.813Z,1016.30
2019-02-17T02:27:09.794Z,1016.29
2019-02-17T02:28:09.784Z,1016.34
2019-02-17T02:29:09.776Z,1016.28
2019-02-17T02:30:09.801Z,1016.29
2019-02-17T02:31:09.756Z,1016.28
2019-02-17T02:32:09.747Z,1016.28
2019-02-17T02:33:09.847Z,1016.28
2019-02-17T02:34:09.719Z,1016.29
2019-02-17T02:35:09.708Z,1016.22
2019-02-17T02:36:09.710Z,1016.29
2019-02-17T02:37:09.684Z,1016.25
2019-02-17T02:38:09.716Z,1016.28
2019-02-17T02:39:09.664Z,1016.24
2019-02-17T02:40:09.663Z,1016.24
2019-02-17T02:41:09.648Z,1016.26
2019-02-17T02:42:09.635Z,1016.22
2019-02-17T02:43:09.619Z,1016.21
2019-02-17T02:44:09.629Z,1016.20
2019-02-17T02:45:09.599Z,1016.19
2019-02-17T02:46:09.588Z,1016.20
2019-02-17T02:47:09.583Z,1016.18
2019-02-17T02:48:09.566Z,1016.17
2019-02-17T02:49:09.572Z,1016.19
2019-02-17T02:50:09.552Z,1016.16
2019-02-17T02:51:09.549Z,1016.10
2019-02-17T02:52:09.524Z,1016.07
2019-02-17T02:53:09.511Z,1016.10
2019-02-17T02:54:09.517Z,1016.12
2019-02-17T02:55:09.489Z,1016.07
2019-02-17T02:56:09.488Z,1016.06
2019-02-17T02:57:09.466Z,1016.04
2019-02-17T02:58:09.456Z,1016.03
2019-02-17T02:59:09.444Z,1016.03
2019-02-17T03:00:09.455Z,1016.04
2019-02-17T03:01:09.425Z,1016.06
2019-02-17T03:02:09.427Z,1016.09
2019-02-17T03:03:09.403Z,1016.08
2019-02-17T03:04:09.388Z,1016.08
2019-02-17T03:05:09.403Z,1016.07
2019-02-17T03:06:09.382Z,1016.07
2019-02-17T03:07:09.369Z,1016.08
2019-02-17T03:08:09.352Z,1016.05
2019-02-17T03:09:09.334Z,1016.04
2019-02-17T03:10:09.330Z,1016.08
2019-02-17T03:11:09.315Z,1016.05
2019-02-17T03:12:09.340Z,1016.05
2019-02-17T03:13:09.291Z,1016.04
2019-02-17T03:14:09.289Z,1016.06
2019-02-17T03:15:09.269Z,1016.10
2019-02-17T03:16:09.263Z,1016.09
2019-02-17T03:17:09.253Z,1016.11
2019-02-17T03:18:09.246Z,1016.10
2019-02-17T03:19:09.224Z,1016.12
2019-02-17T03:20:09.222Z,1016.15
2019-02-17T03:21:09.202Z,1016.11
2019-02-17T03:22:09.194Z,1016.09
2019-02-17T03:23:09.202Z,1016.07
2019-02-17T03:24:09.172Z,1016.08
2019-02-17T03:25:09.161Z,1016.08
2019-02-17T03:26:09.155Z,1016.10
2019-02-17T03:27:09.139Z,1016.08
2019-02-17T03:28:09.136Z,1016.09
2019-02-17T03:29:09.129Z,1016.10
2019-02-17T03:30:09.112Z,1016.13
2019-02-17T03:31:09.094Z,1016.08
2019-02-17T03:32:09.091Z,1016.09
2019-02-17T03:33:09.122Z,1016.10
2019-02-17T03:34:09.064Z,1016.11
2019-02-17T03:35:09.056Z,1016.09
2019-02-17T03:36:09.041Z,1016.10
2019-02-17T03:37:09.042Z,1016.14
2019-02-17T03:38:09.062Z,1016.16
2019-02-17T03:39:09.020Z,1016.10
2019-02-17T03:40:09.008Z,1016.14
2019-02-17T03:41:08.987Z,1016.15
2019-02-17T03:42:08.987Z,1016.14
2019-02-17T03:43:09.004Z,1016.13
2019-02-17T03:44:08.963Z,1016.11
2019-02-17T03:45:08.944Z,1016.13
2019-02-17T03:46:08.931Z,1016.13
2019-02-17T03:47:08.921Z,1016.13
2019-02-17T03:48:08.910Z,1016.11
2019-02-17T03:49:08.937Z,1016.09
2019-02-17T03:50:08.895Z,1016.09
2019-02-17T03:51:08.879Z,1016.05
2019-02-17T03:52:08.869Z,1016.10
2019-02-17T03:53:08.855Z,1016.10
2019-02-17T03:54:08.853Z,1016.07
2019-02-17T03:55:08.865Z,1016.07
2019-02-17T03:56:08.831Z,1016.07
2019-02-17T03:57:08.819Z,1016.06
2019-02-17T03:58:08.807Z,1016.07
2019-02-17T03:59:08.790Z,1016.04
2019-02-17T04:00:16.487Z,1016.03
2019-02-17T04:01:09.815Z,1016.03
2019-02-17T04:02:08.773Z,1016.02
2019-02-17T04:03:08.752Z,1016.03
2019-02-17T04:04:08.738Z,1016.02
2019-02-17T04:05:08.728Z,1016.03
2019-02-17T04:06:08.719Z,1016.04
2019-02-17T04:07:08.739Z,1016.05
2019-02-17T04:08:08.701Z,1016.06
2019-02-17T04:09:08.683Z,1016.03
2019-02-17T04:10:08.669Z,1016.04
2019-02-17T04:11:08.659Z,1016.07
2019-02-17T04:12:08.646Z,1016.09
2019-02-17T04:13:08.675Z,1016.08
2019-02-17T04:14:08.634Z,1016.07
2019-02-17T04:15:08.623Z,1016.08
2019-02-17T04:16:08.604Z,1016.06
2019-02-17T04:17:08.594Z,1016.05
2019-02-17T04:18:08.581Z,1016.00
2019-02-17T04:19:08.585Z,1016.02
2019-02-17T04:20:08.571Z,1016.00
2019-02-17T04:21:08.550Z,1015.98
2019-02-17T04:22:08.539Z,1016.00
2019-02-17T04:23:08.548Z,1015.98
2019-02-17T04:24:08.519Z,1016.02
2019-02-17T04:25:08.506Z,1016.00
2019-02-17T04:26:08.503Z,1016.02
2019-02-17T04:27:08.486Z,1016.00
2019-02-17T04:28:08.512Z,1016.06
2019-02-17T04:29:10.330Z,1016.07
2019-02-17T04:30:08.454Z,1016.05
2019-02-17T04:31:08.443Z,1016.08
2019-02-17T04:32:08.446Z,1016.07
2019-02-17T04:33:08.421Z,1016.09
2019-02-17T04:34:08.422Z,1016.07
2019-02-17T04:35:08.399Z,1016.07
2019-02-17T04:36:08.394Z,1016.08
2019-02-17T04:37:08.377Z,1016.05
2019-02-17T04:38:08.379Z,1016.07
2019-02-17T04:39:08.372Z,1016.05
2019-02-17T04:40:08.343Z,1016.06
2019-02-17T04:41:08.342Z,1016.04
2019-02-17T04:42:08.321Z,1016.03
2019-02-17T04:43:08.316Z,1016.04
2019-02-17T04:44:08.304Z,1016.07
2019-02-17T04:45:08.302Z,1016.06
2019-02-17T04:46:08.278Z,1016.03
2019-02-17T04:47:08.274Z,1016.03
2019-02-17T04:48:08.257Z,1016.00
2019-02-17T04:49:08.245Z,1015.93
2019-02-17T04:50:08.255Z,1015.96
2019-02-17T04:51:08.234Z,1015.95
2019-02-17T04:52:08.212Z,1015.97
2019-02-17T04:53:08.202Z,1015.95
2019-02-17T04:54:08.193Z,1015.94
2019-02-17T04:55:08.181Z,1015.98
2019-02-17T04:56:08.194Z,1015.94
2019-02-17T04:57:08.190Z,1015.96
2019-02-17T04:58:08.146Z,1015.92
2019-02-17T04:59:08.134Z,1015.96
2019-02-17T05:00:08.126Z,1015.93
2019-02-17T05:01:08.120Z,1015.96
2019-02-17T05:02:08.107Z,1015.92
2019-02-17T05:03:08.105Z,1015.91
2019-02-17T05:04:08.083Z,1015.95
2019-02-17T05:05:08.096Z,1015.94
2019-02-17T05:06:08.063Z,1015.92
2019-02-17T05:07:08.048Z,1015.93
2019-02-17T05:08:08.045Z,1015.97
2019-02-17T05:09:08.047Z,1015.96
2019-02-17T05:10:08.019Z,1015.92
2019-02-17T05:11:08.048Z,1015.93
2019-02-17T05:12:07.993Z,1015.92
2019-02-17T05:13:07.988Z,1015.96
2019-02-17T05:14:07.983Z,1015.96
2019-02-17T05:15:07.961Z,1015.95
2019-02-17T05:16:07.951Z,1015.96
2019-02-17T05:17:07.962Z,1015.99
2019-02-17T05:18:07.928Z,1015.97
2019-02-17T05:19:07.918Z,1015.98
2019-02-17T05:20:07.918Z,1016.01
2019-02-17T05:21:07.913Z,1016.02
2019-02-17T05:22:07.886Z,1015.95
2019-02-17T05:23:07.888Z,1015.95
2019-02-17T05:24:07.863Z,1015.96
2019-02-17T05:25:07.851Z,1015.94
2019-02-17T05:26:07.859Z,1015.89
2019-02-17T05:27:07.866Z,1015.88
2019-02-17T05:28:07.820Z,1015.85
2019-02-17T05:29:07.817Z,1015.89
2019-02-17T05:30:07.802Z,1015.87
2019-02-17T05:31:07.788Z,1015.91
2019-02-17T05:32:07.787Z,1015.90
2019-02-17T05:33:07.782Z,1015.88
2019-02-17T05:34:07.756Z,1015.89
2019-02-17T05:35:07.745Z,1015.90
2019-02-17T05:36:07.736Z,1015.89
2019-02-17T05:37:07.722Z,1015.85
2019-02-17T05:38:07.752Z,1015.85
2019-02-17T05:39:07.703Z,1015.85
2019-02-17T05:40:07.690Z,1015.80
2019-02-17T05:41:07.688Z,1015.81
2019-02-17T05:42:07.667Z,1015.81
2019-02-17T05:43:07.658Z,1015.76
2019-02-17T05:44:07.686Z,1015.79
2019-02-17T05:45:07.637Z,1015.78
2019-02-17T05:46:07.626Z,1015.77
2019-02-17T05:47:07.615Z,1015.79
2019-02-17T05:48:07.604Z,1015.76
2019-02-17T05:49:07.591Z,1015.81
2019-02-17T05:50:07.602Z,1015.83
2019-02-17T05:51:07.570Z,1015.83
2019-02-17T05:52:07.560Z,1015.84
2019-02-17T05:53:07.551Z,1015.80
2019-02-17T05:54:07.537Z,1015.87
2019-02-17T05:55:07.540Z,1015.84
2019-02-17T05:56:07.526Z,1015.83
2019-02-17T05:57:07.505Z,1015.89
2019-02-17T05:58:07.498Z,1015.88
2019-02-17T05:59:07.484Z,1015.87
2019-02-17T06:00:07.559Z,1015.85
2019-02-17T06:01:07.530Z,1015.87
2019-02-17T06:02:07.457Z,1015.92
2019-02-17T06:03:07.493Z,1015.91
2019-02-17T06:04:07.428Z,1015.91
2019-02-17T06:05:07.419Z,1015.93
2019-02-17T06:06:07.407Z,1015.92
2019-02-17T06:07:07.395Z,1015.92
2019-02-17T06:08:07.397Z,1015.92
2019-02-17T06:09:07.387Z,1015.94
2019-02-17T06:10:07.403Z,1015.95
2019-02-17T06:11:07.357Z,1015.94
2019-02-17T06:12:07.340Z,1015.94
2019-02-17T06:13:07.329Z,1015.92
2019-02-17T06:14:07.323Z,1015.96
2019-02-17T06:15:07.308Z,1015.94
2019-02-17T06:16:07.312Z,1015.95
2019-02-17T06:17:07.290Z,1015.92
2019-02-17T06:18:07.277Z,1015.93
2019-02-17T06:19:07.265Z,1015.92
2019-02-17T06:20:07.283Z,1015.96
2019-02-17T06:21:07.246Z,1015.93
2019-02-17T06:22:07.233Z,1015.94
2019-02-17T06:23:07.221Z,1015.97
2019-02-17T06:24:07.212Z,1015.99
2019-02-17T06:25:07.267Z,1015.96
2019-02-17T06:26:07.226Z,1015.98
2019-02-17T06:27:07.179Z,1015.99
2019-02-17T06:28:07.166Z,1015.98
2019-02-17T06:29:07.154Z,1015.91
2019-02-17T06:30:07.239Z,1015.89
2019-02-17T06:31:13.887Z,1015.93
2019-02-17T06:32:08.134Z,1015.92
2019-02-17T06:33:07.122Z,1015.94
2019-02-17T06:34:07.102Z,1015.96
2019-02-17T06:35:07.093Z,1015.98
2019-02-17T06:36:07.092Z,1015.98
2019-02-17T06:37:07.068Z,1016.00
2019-02-17T06:38:07.066Z,1015.95
2019-02-17T06:39:07.046Z,1016.02
2019-02-17T06:40:07.051Z,1016.02
2019-02-17T06:41:07.026Z,1016.02
2019-02-17T06:42:07.025Z,1016.01
2019-02-17T06:43:07.002Z,1016.01
2019-02-17T06:44:07.002Z,1016.04
2019-02-17T06:45:06.983Z,1016.06
2019-02-17T06:46:06.981Z,1016.07
2019-02-17T06:47:06.979Z,1016.04
2019-02-17T06:48:06.946Z,1016.05
2019-02-17T06:49:06.939Z,1016.03
2019-02-17T06:50:06.935Z,1016.03
2019-02-17T06:51:06.916Z,1016.02
2019-02-17T06:52:06.908Z,1016.03
2019-02-17T06:53:06.906Z,1015.99
2019-02-17T06:54:06.914Z,1016.01
2019-02-17T06:55:06.875Z,1016.01
2019-02-17T06:56:09.051Z,1016.02
2019-02-17T06:57:06.849Z,1016.04
2019-02-17T06:58:06.840Z,1016.05
2019-02-17T06:59:06.836Z,1016.04
2019-02-17T07:00:06.829Z,1016.01
2019-02-17T07:01:06.819Z,1016.00
2019-02-17T07:02:06.804Z,1016.01
2019-02-17T07:03:06.786Z,1016.03
2019-02-17T07:04:06.773Z,1016.08
2019-02-17T07:05:06.797Z,1016.07
2019-02-17T07:06:06.772Z,1016.05
2019-02-17T07:07:06.814Z,1016.08
2019-02-17T07:08:06.738Z,1016.12
2019-02-17T07:09:06.722Z,1016.11
2019-02-17T07:10:06.707Z,1016.14
2019-02-17T07:11:06.708Z,1016.15
2019-02-17T07:12:06.736Z,1016.10
2019-02-17T07:13:06.675Z,1016.12
2019-02-17T07:14:06.670Z,1016.11
2019-02-17T07:15:06.651Z,1016.11
2019-02-17T07:16:06.655Z,1016.15
2019-02-17T07:17:06.632Z,1016.14
2019-02-17T07:18:06.622Z,1016.15
2019-02-17T07:19:06.610Z,1016.16
2019-02-17T07:20:06.603Z,1016.10
2019-02-17T07:21:06.601Z,1016.12
2019-02-17T07:22:06.576Z,1016.12
2019-02-17T07:23:06.567Z,1016.15
2019-02-17T07:24:06.560Z,1016.10
2019-02-17T07:25:06.547Z,1016.10
2019-02-17T07:26:06.573Z,1016.12
2019-02-17T07:27:06.520Z,1016.10
2019-02-17T07:28:06.511Z,1016.13
2019-02-17T07:29:06.500Z,1016.09
2019-02-17T07:30:06.497Z,1016.08
2019-02-17T07:31:06.485Z,1016.10
2019-02-17T07:32:06.488Z,1016.05
2019-02-17T07:33:06.457Z,1016.07
2019-02-17T07:34:06.445Z,1016.08
2019-02-17T07:35:06.436Z,1016.06
2019-02-17T07:36:06.424Z,1016.07
2019-02-17T07:37:06.425Z,1016.04
2019-02-17T07:38:06.407Z,1016.03
2019-02-17T07:39:06.391Z,1016.10
2019-02-17T07:40:06.386Z,1016.08
2019-02-17T07:41:06.371Z,1016.10
2019-02-17T07:42:06.371Z,1016.09
2019-02-17T07:43:06.347Z,1016.06
2019-02-17T07:44:06.343Z,1016.10
2019-02-17T07:45:06.324Z,1016.13
2019-02-17T07:46:06.315Z,1016.16
2019-02-17T07:47:06.342Z,1016.18
2019-02-17T07:48:06.296Z,1016.16
2019-02-17T07:49:06.282Z,1016.13
2019-02-17T07:50:06.277Z,1016.14
2019-02-17T07:51:06.260Z,1016.09
2019-02-17T07:52:06.252Z,1016.11
2019-02-17T07:53:06.252Z,1016.09
2019-02-17T07:54:06.227Z,1016.06
2019-02-17T07:55:06.216Z,1016.07
2019-02-17T07:56:06.210Z,1016.05
2019-02-17T07:57:06.195Z,1016.05
2019-02-17T07:58:06.196Z,1016.04
2019-02-17T07:59:06.172Z,1016.05
2019-02-17T08:00:06.162Z,1016.02
2019-02-17T08:01:07.315Z,1016.00
2019-02-17T08:02:06.145Z,1015.98
2019-02-17T08:03:06.151Z,1016.00
2019-02-17T08:04:06.117Z,1015.98
2019-02-17T08:05:06.106Z,1015.97
2019-02-17T08:06:06.095Z,1015.95
2019-02-17T08:07:06.084Z,1015.94
2019-02-17T08:08:06.084Z,1015.97
2019-02-17T08:09:06.074Z,1015.96
2019-02-17T08:10:06.055Z,1015.97
2019-02-17T08:11:06.044Z,1015.95
2019-02-17T08:12:06.029Z,1015.96
2019-02-17T08:13:06.019Z,1015.95
2019-02-17T08:14:06.054Z,1015.94
2019-02-17T08:15:07.351Z,1015.94
2019-02-17T08:16:05.987Z,1015.86
2019-02-17T08:17:05.977Z,1015.86
2019-02-17T08:18:05.972Z,1015.89
2019-02-17T08:19:05.953Z,1015.87
2019-02-17T08:20:05.974Z,1015.86
2019-02-17T08:21:05.932Z,1015.89
2019-02-17T08:22:05.933Z,1015.88
2019-02-17T08:23:05.921Z,1015.87
2019-02-17T08:24:05.899Z,1015.88
2019-02-17T08:25:05.889Z,1015.84
2019-02-17T08:26:05.911Z,1015.80
2019-02-17T08:27:05.866Z,1015.76
2019-02-17T08:28:05.863Z,1015.82
2019-02-17T08:29:05.850Z,1015.77
2019-02-17T08:30:05.834Z,1015.79
2019-02-17T08:31:05.823Z,1015.78
2019-02-17T08:32:05.824Z,1015.80
2019-02-17T08:33:05.801Z,1015.75
2019-02-17T08:34:05.802Z,1015.75
2019-02-17T08:35:05.779Z,1015.73
2019-02-17T08:36:05.769Z,1015.74
2019-02-17T08:37:05.770Z,1015.78
2019-02-17T08:38:05.747Z,1015.76
2019-02-17T08:39:05.748Z,1015.73
2019-02-17T08:40:05.769Z,1015.70
2019-02-17T08:41:05.714Z,1015.71
2019-02-17T08:42:05.702Z,1015.74
2019-02-17T08:43:05.694Z,1015.75
2019-02-17T08:44:05.687Z,1015.77
2019-02-17T08:45:05.668Z,1015.74
2019-02-17T08:46:05.683Z,1015.76
2019-02-17T08:47:05.646Z,1015.73
2019-02-17T08:48:05.636Z,1015.76
2019-02-17T08:49:05.654Z,1015.75
2019-02-17T08:50:05.615Z,1015.74
2019-02-17T08:51:05.607Z,1015.70
2019-02-17T08:52:05.599Z,1015.71
2019-02-17T08:53:05.582Z,1015.76
2019-02-17T08:54:05.571Z,1015.72
2019-02-17T08:55:05.571Z,1015.74
2019-02-17T08:56:05.547Z,1015.73
2019-02-17T08:57:05.550Z,1015.67
2019-02-17T08:58:05.531Z,1015.67
2019-02-17T08:59:05.523Z,1015.65
2019-02-17T09:00:05.505Z,1015.63
2019-02-17T09:01:05.491Z,1015.61
2019-02-17T09:02:06.366Z,1015.65
2019-02-17T09:03:05.467Z,1015.62
2019-02-17T09:04:05.461Z,1015.65
2019-02-17T09:05:05.446Z,1015.60
2019-02-17T09:06:05.443Z,1015.63
2019-02-17T09:07:06.463Z,1015.58
2019-02-17T09:08:05.412Z,1015.58
2019-02-17T09:09:05.420Z,1015.62
2019-02-17T09:10:05.396Z,1015.58
2019-02-17T09:11:05.379Z,1015.59
2019-02-17T09:12:05.372Z,1015.56
2019-02-17T09:13:05.358Z,1015.58
2019-02-17T09:14:05.385Z,1015.55
2019-02-17T09:15:05.334Z,1015.57
2019-02-17T09:16:05.334Z,1015.57
2019-02-17T09:17:05.314Z,1015.54
2019-02-17T09:18:05.300Z,1015.54
2019-02-17T09:19:05.297Z,1015.51
2019-02-17T09:20:05.293Z,1015.50
2019-02-17T09:21:05.399Z,1015.46
2019-02-17T09:22:05.263Z,1015.48
2019-02-17T09:23:05.248Z,1015.47
2019-02-17T09:24:05.237Z,1015.51
2019-02-17T09:25:05.224Z,1015.51
2019-02-17T09:26:05.214Z,1015.47
2019-02-17T09:27:05.224Z,1015.44
2019-02-17T09:28:05.204Z,1015.45
2019-02-17T09:29:05.191Z,1015.43
2019-02-17T09:30:05.168Z,1015.41
2019-02-17T09:31:05.183Z,1015.38
2019-02-17T09:32:05.157Z,1015.36
2019-02-17T09:33:05.138Z,1015.37
2019-02-17T09:34:05.131Z,1015.37
2019-02-17T09:35:05.117Z,1015.41
2019-02-17T09:36:05.103Z,1015.39
2019-02-17T09:37:05.104Z,1015.45
2019-02-17T09:38:05.093Z,1015.43
2019-02-17T09:39:05.070Z,1015.42
2019-02-17T09:40:05.090Z,1015.47
2019-02-17T09:41:05.054Z,1015.45
2019-02-17T09:42:05.041Z,1015.44
2019-02-17T09:43:05.027Z,1015.43
2019-02-17T09:44:05.015Z,1015.43
2019-02-17T09:45:05.011Z,1015.39
2019-02-17T09:46:05.020Z,1015.34
2019-02-17T09:47:04.990Z,1015.36
2019-02-17T09:48:05.006Z,1015.29
2019-02-17T09:49:04.960Z,1015.29
2019-02-17T09:50:04.950Z,1015.32
2019-02-17T09:51:05.000Z,1015.30
2019-02-17T09:52:04.937Z,1015.25
2019-02-17T09:53:04.922Z,1015.24
2019-02-17T09:54:04.924Z,1015.26
2019-02-17T09:55:04.894Z,1015.27
2019-02-17T09:56:04.884Z,1015.26
2019-02-17T09:57:04.869Z,1015.26
2019-02-17T09:58:04.870Z,1015.23
2019-02-17T09:59:04.855Z,1015.22
2019-02-17T10:00:04.857Z,1015.23
2019-02-17T10:01:04.827Z,1015.22
2019-02-17T10:02:04.821Z,1015.23
2019-02-17T10:03:04.805Z,1015.16
2019-02-17T10:04:04.794Z,1015.22
2019-02-17T10:05:04.799Z,1015.18
2019-02-17T10:06:04.775Z,1015.19
2019-02-17T10:07:04.760Z,1015.20
2019-02-17T10:08:04.762Z,1015.21
2019-02-17T10:09:04.738Z,1015.22
2019-02-17T10:10:04.726Z,1015.22
2019-02-17T10:11:04.723Z,1015.20
2019-02-17T10:12:04.713Z,1015.19
2019-02-17T10:13:04.730Z,1015.19
2019-02-17T10:14:04.686Z,1015.21
2019-02-17T10:15:04.671Z,1015.19
2019-02-17T10:16:04.659Z,1015.19
2019-02-17T10:17:04.657Z,1015.19
2019-02-17T10:18:04.648Z,1015.17
2019-02-17T10:19:04.746Z,1015.20
2019-02-17T10:20:04.624Z,1015.21
2019-02-17T10:21:04.604Z,1015.21
2019-02-17T10:22:04.594Z,1015.17
2019-02-17T10:23:04.584Z,1015.14
2019-02-17T10:24:04.583Z,1015.14
2019-02-17T10:25:04.572Z,1015.13
2019-02-17T10:26:04.557Z,1015.12
2019-02-17T10:27:04.539Z,1015.07
2019-02-17T10:28:04.528Z,1015.07
2019-02-17T10:29:04.515Z,1015.04
2019-02-17T10:30:04.522Z,1015.02
2019-02-17T10:31:04.497Z,1014.97
2019-02-17T10:32:04.484Z,1014.98
2019-02-17T10:33:04.475Z,1014.99
2019-02-17T10:34:04.462Z,1015.03
2019-02-17T10:35:04.492Z,1015.05
2019-02-17T10:36:04.444Z,1015.03
2019-02-17T10:37:04.427Z,1015.01
2019-02-17T10:38:04.422Z,1015.02
2019-02-17T10:39:04.408Z,1014.95
2019-02-17T10:40:04.395Z,1014.94
2019-02-17T10:41:04.415Z,1014.90
2019-02-17T10:42:04.377Z,1014.90
2019-02-17T10:43:04.364Z,1014.89
2019-02-17T10:44:04.362Z,1014.88
2019-02-17T10:45:04.339Z,1014.87
2019-02-17T10:46:06.033Z,1014.87
2019-02-17T10:47:04.323Z,1014.86
2019-02-17T10:48:04.305Z,1014.85
2019-02-17T10:49:04.349Z,1014.83
2019-02-17T10:50:04.283Z,1014.82
2019-02-17T10:51:04.275Z,1014.81
2019-02-17T10:52:04.306Z,1014.81
2019-02-17T10:53:04.264Z,1014.78
2019-02-17T10:54:04.248Z,1014.80
2019-02-17T10:55:04.228Z,1014.77
2019-02-17T10:56:04.218Z,1014.77
2019-02-17T10:57:04.209Z,1014.76
2019-02-17T10:58:04.210Z,1014.72
2019-02-17T10:59:04.189Z,1014.69
2019-02-17T11:00:04.175Z,1014.72
2019-02-17T11:01:04.162Z,1014.67
2019-02-17T11:02:04.151Z,1014.67
2019-02-17T11:03:04.257Z,1014.68
2019-02-17T11:04:04.128Z,1014.67
2019-02-17T11:05:04.126Z,1014.68
2019-02-17T11:06:04.106Z,1014.65
2019-02-17T11:07:04.095Z,1014.59
2019-02-17T11:08:04.085Z,1014.66
2019-02-17T11:09:04.085Z,1014.65
2019-02-17T11:10:04.064Z,1014.59
2019-02-17T11:11:04.056Z,1014.57
2019-02-17T11:12:04.046Z,1014.58
2019-02-17T11:13:04.028Z,1014.57
2019-02-17T11:14:04.058Z,1014.54
2019-02-17T11:15:04.005Z,1014.50
2019-02-17T11:16:03.996Z,1014.48
2019-02-17T11:17:03.987Z,1014.46
2019-02-17T11:18:03.976Z,1014.46
2019-02-17T11:19:03.967Z,1014.42
2019-02-17T11:20:03.972Z,1014.38
2019-02-17T11:21:03.937Z,1014.37
2019-02-17T11:22:03.930Z,1014.38
2019-02-17T11:23:03.920Z,1014.39
2019-02-17T11:24:03.905Z,1014.42
2019-02-17T11:25:03.897Z,1014.34
2019-02-17T11:26:03.895Z,1014.31
2019-02-17T11:27:03.871Z,1014.25
2019-02-17T11:28:03.858Z,1014.23
2019-02-17T11:29:03.851Z,1014.22
2019-02-17T11:30:05.493Z,1014.21
2019-02-17T11:31:03.867Z,1014.18
2019-02-17T11:32:03.814Z,1014.16
2019-02-17T11:33:03.803Z,1014.17
2019-02-17T11:34:03.791Z,1014.14
2019-02-17T11:35:03.785Z,1014.12
2019-02-17T11:36:03.774Z,1014.08
2019-02-17T11:37:03.784Z,1014.10
2019-02-17T11:38:03.748Z,1014.12
2019-02-17T11:39:03.736Z,1014.06
2019-02-17T11:40:03.726Z,1014.09
2019-02-17T11:41:03.715Z,1014.06
2019-02-17T11:42:03.711Z,1014.05
2019-02-17T11:43:03.728Z,1014.05
2019-02-17T11:44:03.688Z,1014.03
2019-02-17T11:45:03.669Z,1013.99
2019-02-17T11:46:03.658Z,1014.02
2019-02-17T11:47:03.646Z,1013.98
2019-02-17T11:48:03.646Z,1013.94
2019-02-17T11:49:03.636Z,1014.00
2019-02-17T11:50:03.618Z,1014.00
2019-02-17T11:51:03.602Z,1013.99
2019-02-17T11:52:03.593Z,1013.98
2019-02-17T11:53:03.587Z,1013.96
2019-02-17T11:54:03.581Z,1013.95
2019-02-17T11:55:03.558Z,1013.94
2019-02-17T11:56:03.550Z,1013.97
2019-02-17T11:57:03.536Z,1013.90
2019-02-17T11:58:03.525Z,1013.95
2019-02-17T11:59:03.546Z,1013.91
2019-02-17T12:00:03.501Z,1013.85
2019-02-17T12:01:05.287Z,1013.82
2019-02-17T12:02:03.489Z,1013.90
2019-02-17T12:03:08.003Z,1013.88
2019-02-17T12:04:03.458Z,1013.90
2019-02-17T12:05:03.464Z,1013.86